Peckham, Oklahoma
Current Conditions -  °F | °C
As of 12:53 AM on Saturday 29 Nov 2014 (Local Time) from KPNC Reporting Station
Clear Clear  
Wind Chill: 56°   Ceiling: Unl
Heat Index: 56°   Visibility: 10mi
Dew Point: 45°   Wind: 10mph
Humidity: 67%   Direction: 170°S
Pressure: 29.72"   Gusts: 17mph
Location:  36.9105°N, 97.0487°W
Report Text: KPNC 290653Z AUTO 17009G15KT 10SM CLR 13/07 A2972 RMK AO2 SLP058 T01330072
Loading
Personal Weather Stations






























Interactive Weather Map New forecast layout! Learn more

10-Day Weather Forecast

Advertisements
Track Severe Weather on mobile